Portada
METAR-TAF:

METAR-TAF

Aeroports :

Cochabamba, Bolívia

latitud: 17-25S, longitud: 066-11W, altitud: 2548 m

Observació

L'informe es va fer fa 11 minuts, a les 08:00 UTC
Vent calma
Temperatura 11°C
Humitat 82%
Pressió 1025 hPa
Visibilitat 10 km o més
Escasses núvols a una alçada de 8000 ft

METAR: SLCB 080800Z 00000KT 9999 FEW080 11/08 Q1025

Hora: 04:11 (08:11 UTC)

Pronòstic

L'informe es va fer fa 4 hores i 11 minuts, a les 04:00 UTC
Pronòstic vàlid del 08 a les 06 UTC al 09 a les 06 UTC
Vent kt del Nord
Visibilitat 10 km o més
Evolucionant progressivament
l' 08 a les 15 UTC al 08 a les 17 UTC
Vent 10 kt del Oest/Sud-Oest
Evolucionant progressivament
l' 08 a les 20 UTC al 08 a les 22 UTC
Vent 10 kt del Est/Nord-Est

TAF: SLCB 080400Z 0806/0906 00000KT 9999 NSC TX30/0819Z TN07/0811Z BECMG 0815/0817 25010KT BECMG 0820/0822 06010KT

Observacions i pronòstics meteorològics de més de 4000 aeroports (METAR i TAF).

Les estacions disponibles són els punts grocs i vermells al mapa.

Posi el ratolí al punt desitjat per veure el nom de l'estació.

Feu clic per veure les observacions i els pronòstics meteorològics.

Per canviar el mapa: feu clic els botons verds amb una creu de color negre per apropar; al botó verd amb un guió per allunyar la imatge; o en les fletxes verdes per a mapes adjacents.


METAR-TAF: